createdAt,value
2018-04-14T00:00:44.831Z,99.99
2018-04-14T00:01:45.401Z,99.99
2018-04-14T00:02:45.958Z,99.99
2018-04-14T00:03:46.526Z,99.99
2018-04-14T00:04:47.086Z,99.99
2018-04-14T00:05:47.633Z,99.99
2018-04-14T00:06:48.181Z,99.99
2018-04-14T00:07:48.733Z,99.99
2018-04-14T00:08:49.280Z,99.99
2018-04-14T00:09:49.833Z,99.99
2018-04-14T00:10:50.378Z,99.99
2018-04-14T00:11:50.919Z,99.99
2018-04-14T00:12:51.464Z,99.99
2018-04-14T00:13:52.016Z,99.99
2018-04-14T00:14:52.561Z,99.99
2018-04-14T00:15:53.108Z,99.99
2018-04-14T00:16:53.652Z,99.99
2018-04-14T00:17:54.195Z,99.99
2018-04-14T00:18:54.741Z,99.99
2018-04-14T00:19:55.287Z,99.99
2018-04-14T00:20:55.827Z,99.99
2018-04-14T00:21:56.380Z,99.99
2018-04-14T00:22:56.924Z,99.99
2018-04-14T00:23:57.472Z,99.99
2018-04-14T00:24:58.011Z,99.99
2018-04-14T00:25:58.558Z,99.99
2018-04-14T00:26:59.108Z,99.99
2018-04-14T00:27:59.655Z,99.99
2018-04-14T00:29:00.204Z,99.99
2018-04-14T00:30:00.751Z,99.99
2018-04-14T00:31:01.296Z,99.99
2018-04-14T00:32:01.838Z,99.99
2018-04-14T00:33:02.391Z,99.99
2018-04-14T00:34:02.933Z,99.99
2018-04-14T00:35:03.483Z,99.99
2018-04-14T00:36:04.047Z,99.99
2018-04-14T00:37:04.577Z,99.99
2018-04-14T00:38:05.117Z,99.99
2018-04-14T00:39:05.660Z,99.99
2018-04-14T00:40:06.206Z,99.99
2018-04-14T00:41:06.757Z,99.99
2018-04-14T00:42:07.304Z,99.99
2018-04-14T00:43:07.842Z,99.99
2018-04-14T00:44:08.382Z,99.99
2018-04-14T00:45:08.933Z,99.99
2018-04-14T00:46:09.483Z,99.99
2018-04-14T00:47:10.028Z,99.99
2018-04-14T00:48:10.571Z,99.99
2018-04-14T00:49:11.120Z,99.99
2018-04-14T00:50:11.661Z,99.99
2018-04-14T00:51:12.207Z,99.99
2018-04-14T00:52:12.753Z,99.99
2018-04-14T00:53:13.297Z,99.99
2018-04-14T00:54:13.846Z,99.99
2018-04-14T00:55:14.389Z,99.99
2018-04-14T00:56:14.934Z,99.99
2018-04-14T00:57:15.481Z,99.99
2018-04-14T00:58:16.027Z,99.99
2018-04-14T00:59:16.560Z,99.99
2018-04-14T01:00:17.100Z,99.99
2018-04-14T01:01:17.646Z,99.99
2018-04-14T01:02:18.187Z,99.99
2018-04-14T01:03:18.735Z,99.99
2018-04-14T01:04:19.284Z,99.99
2018-04-14T01:05:19.826Z,99.99
2018-04-14T01:06:20.368Z,99.99
2018-04-14T01:07:20.912Z,99.99
2018-04-14T01:08:21.456Z,99.99
2018-04-14T01:09:21.997Z,99.99
2018-04-14T01:10:22.537Z,99.99
2018-04-14T01:11:23.082Z,99.99
2018-04-14T01:12:23.628Z,99.99
2018-04-14T01:13:24.173Z,99.99
2018-04-14T01:14:24.724Z,99.99
2018-04-14T01:15:25.258Z,99.99
2018-04-14T01:16:25.804Z,99.99
2018-04-14T01:17:26.354Z,99.99
2018-04-14T01:18:26.899Z,99.99
2018-04-14T01:19:27.449Z,99.99
2018-04-14T01:20:27.988Z,99.99
2018-04-14T01:21:28.540Z,99.99
2018-04-14T01:22:29.083Z,99.99
2018-04-14T01:23:29.633Z,99.99
2018-04-14T01:24:30.174Z,99.99
2018-04-14T01:25:30.720Z,99.99
2018-04-14T01:26:31.267Z,99.99
2018-04-14T01:27:31.812Z,99.99
2018-04-14T01:28:32.359Z,99.99
2018-04-14T01:29:32.898Z,99.99
2018-04-14T01:30:33.442Z,99.99
2018-04-14T01:31:33.988Z,99.99
2018-04-14T01:32:34.528Z,99.99
2018-04-14T01:33:35.071Z,99.99
2018-04-14T01:34:35.620Z,99.99
2018-04-14T01:35:36.161Z,99.99
2018-04-14T01:36:36.704Z,99.99
2018-04-14T01:37:37.239Z,99.99
2018-04-14T01:38:37.784Z,99.99
2018-04-14T01:39:38.331Z,99.99
2018-04-14T01:40:38.874Z,99.99
2018-04-14T01:41:39.415Z,99.99
2018-04-14T01:42:39.958Z,99.99
2018-04-14T01:43:40.504Z,99.99
2018-04-14T01:44:41.049Z,99.99
2018-04-14T01:45:41.593Z,99.99
2018-04-14T01:46:42.139Z,99.99
2018-04-14T01:47:42.683Z,99.99
2018-04-14T01:48:43.234Z,99.99
2018-04-14T01:49:43.772Z,99.99
2018-04-14T01:50:44.318Z,99.99
2018-04-14T01:51:44.862Z,99.99
2018-04-14T01:52:45.399Z,99.99
2018-04-14T01:53:45.946Z,99.99
2018-04-14T01:54:46.493Z,99.99
2018-04-14T01:55:47.036Z,99.99
2018-04-14T01:56:47.577Z,99.99
2018-04-14T01:57:48.127Z,99.99
2018-04-14T01:58:48.672Z,99.99
2018-04-14T01:59:49.217Z,99.99
2018-04-14T02:00:49.765Z,99.99
2018-04-14T02:01:50.303Z,99.99
2018-04-14T02:02:50.856Z,99.99
2018-04-14T02:03:51.401Z,99.99
2018-04-14T02:04:51.946Z,99.99
2018-04-14T02:05:52.479Z,99.99
2018-04-14T02:06:53.022Z,99.99
2018-04-14T02:07:53.559Z,99.99
2018-04-14T02:08:54.101Z,99.99
2018-04-14T02:09:54.648Z,99.99
2018-04-14T02:10:55.199Z,99.99
2018-04-14T02:11:55.739Z,99.99
2018-04-14T02:12:56.285Z,99.99
2018-04-14T02:13:56.830Z,99.99
2018-04-14T02:14:57.376Z,99.99
2018-04-14T02:15:57.924Z,99.99
2018-04-14T02:16:58.483Z,99.99
2018-04-14T02:17:59.024Z,99.99
2018-04-14T02:18:59.562Z,99.99
2018-04-14T02:20:00.102Z,99.99
2018-04-14T02:21:00.646Z,99.99
2018-04-14T02:22:01.193Z,99.99
2018-04-14T02:23:01.737Z,99.99
2018-04-14T02:24:02.286Z,99.99
2018-04-14T02:25:02.830Z,99.99
2018-04-14T02:26:03.378Z,99.99
2018-04-14T02:27:03.925Z,99.99
2018-04-14T02:28:04.471Z,99.99
2018-04-14T02:29:05.017Z,99.99
2018-04-14T02:30:05.557Z,99.99
2018-04-14T02:31:06.102Z,99.99
2018-04-14T02:32:06.647Z,99.99
2018-04-14T02:33:07.195Z,99.99
2018-04-14T02:34:07.740Z,99.99
2018-04-14T02:35:08.281Z,99.99
2018-04-14T02:36:08.818Z,99.99
2018-04-14T02:37:09.378Z,99.99
2018-04-14T02:38:09.913Z,99.99
2018-04-14T02:39:10.461Z,99.99
2018-04-14T02:40:11.001Z,99.99
2018-04-14T02:41:11.544Z,99.99
2018-04-14T02:42:12.094Z,99.99
2018-04-14T02:43:12.638Z,99.99
2018-04-14T02:44:13.187Z,99.99
2018-04-14T02:45:13.727Z,99.99
2018-04-14T02:46:14.267Z,99.99
2018-04-14T02:47:14.816Z,99.99
2018-04-14T02:48:15.361Z,99.99
2018-04-14T02:49:15.905Z,99.99
2018-04-14T02:50:16.449Z,99.99
2018-04-14T02:51:16.996Z,99.99
2018-04-14T02:52:17.570Z,99.99
2018-04-14T02:53:18.077Z,99.99
2018-04-14T02:54:18.621Z,99.99
2018-04-14T02:55:19.162Z,99.99
2018-04-14T02:56:19.707Z,99.99
2018-04-14T02:57:20.247Z,99.99
2018-04-14T02:58:20.788Z,99.99
2018-04-14T02:59:21.331Z,99.99
2018-04-14T03:00:21.868Z,99.99
2018-04-14T03:01:22.417Z,99.99
2018-04-14T03:02:22.959Z,99.99
2018-04-14T03:03:23.501Z,99.99
2018-04-14T03:04:24.043Z,99.99
2018-04-14T03:05:24.595Z,99.99
2018-04-14T03:06:25.141Z,99.99
2018-04-14T03:07:25.683Z,99.99
2018-04-14T03:08:26.231Z,99.99
2018-04-14T03:09:26.781Z,99.99
2018-04-14T03:10:27.323Z,99.99
2018-04-14T03:11:27.858Z,99.99
2018-04-14T03:12:28.404Z,99.99
2018-04-14T03:13:28.947Z,99.99
2018-04-14T03:14:29.489Z,99.99
2018-04-14T03:15:30.037Z,99.99
2018-04-14T03:16:30.581Z,99.99
2018-04-14T03:17:31.127Z,99.99
2018-04-14T03:18:31.669Z,99.99
2018-04-14T03:19:32.212Z,99.99
2018-04-14T03:20:32.763Z,99.99
2018-04-14T03:21:33.309Z,99.99
2018-04-14T03:22:33.851Z,99.99
2018-04-14T03:23:34.390Z,99.99
2018-04-14T03:24:34.939Z,99.99
2018-04-14T03:25:35.484Z,99.99
2018-04-14T03:26:36.035Z,99.99
2018-04-14T03:27:36.579Z,99.99
2018-04-14T03:28:37.121Z,99.99
2018-04-14T03:29:37.659Z,99.99
2018-04-14T03:30:38.238Z,99.99
2018-04-14T03:31:38.750Z,99.99
2018-04-14T03:32:39.295Z,99.99
2018-04-14T03:33:39.841Z,99.99
2018-04-14T03:34:40.377Z,99.99
2018-04-14T03:35:40.921Z,99.99
2018-04-14T03:36:41.470Z,99.99
2018-04-14T03:37:42.014Z,99.99
2018-04-14T03:38:42.553Z,99.99
2018-04-14T03:39:43.096Z,99.99
2018-04-14T03:40:43.641Z,99.99
2018-04-14T03:41:44.188Z,99.99
2018-04-14T03:42:44.729Z,99.99
2018-04-14T03:43:45.266Z,99.99
2018-04-14T03:44:45.812Z,99.99
2018-04-14T03:45:46.357Z,99.99
2018-04-14T03:46:46.900Z,99.99
2018-04-14T03:47:47.443Z,99.99
2018-04-14T03:48:47.991Z,99.99
2018-04-14T03:49:48.538Z,99.99
2018-04-14T03:50:49.082Z,99.99
2018-04-14T03:51:49.623Z,99.99
2018-04-14T03:52:50.173Z,99.99
2018-04-14T03:53:50.718Z,99.99
2018-04-14T03:54:51.264Z,99.99
2018-04-14T03:55:51.805Z,99.99
2018-04-14T03:56:52.344Z,99.99
2018-04-14T03:57:52.894Z,99.99
2018-04-14T03:58:53.436Z,99.99
2018-04-14T03:59:53.986Z,99.99
2018-04-14T04:00:54.524Z,99.99
2018-04-14T04:01:55.078Z,99.99
2018-04-14T04:02:55.609Z,99.99
2018-04-14T04:03:56.150Z,99.99
2018-04-14T04:04:56.708Z,99.99
2018-04-14T04:05:57.244Z,99.99
2018-04-14T04:06:57.788Z,99.99
2018-04-14T04:07:58.335Z,99.99
2018-04-14T04:08:58.880Z,99.99
2018-04-14T04:09:59.421Z,99.99
2018-04-14T04:10:59.963Z,99.99
2018-04-14T04:12:00.512Z,99.99
2018-04-14T04:13:01.059Z,99.99
2018-04-14T04:14:01.609Z,99.99
2018-04-14T04:15:02.152Z,99.99
2018-04-14T04:16:02.694Z,99.99
2018-04-14T04:17:03.237Z,99.99
2018-04-14T04:18:03.786Z,99.99
2018-04-14T04:19:04.334Z,99.99
2018-04-14T04:20:04.877Z,99.99
2018-04-14T04:21:05.423Z,99.99
2018-04-14T04:22:05.967Z,99.99
2018-04-14T04:23:06.511Z,99.99
2018-04-14T04:24:07.053Z,99.99
2018-04-14T04:25:07.591Z,99.99
2018-04-14T04:26:08.141Z,99.99
2018-04-14T04:27:08.683Z,99.99
2018-04-14T04:28:09.244Z,99.99
2018-04-14T04:29:09.774Z,99.99
2018-04-14T04:30:10.322Z,99.99
2018-04-14T04:31:10.873Z,99.99
2018-04-14T04:32:11.417Z,99.99
2018-04-14T04:33:11.964Z,99.99
2018-04-14T04:34:12.510Z,99.99
2018-04-14T04:35:13.051Z,99.99
2018-04-14T04:36:13.596Z,99.99
2018-04-14T04:37:14.144Z,99.99
2018-04-14T04:38:14.692Z,99.99
2018-04-14T04:39:15.239Z,99.99
2018-04-14T04:40:15.780Z,99.99
2018-04-14T04:41:16.329Z,99.99
2018-04-14T04:42:16.875Z,99.99
2018-04-14T04:43:17.426Z,99.99
2018-04-14T04:44:17.976Z,99.99
2018-04-14T04:45:18.514Z,99.99
2018-04-14T04:46:19.062Z,99.99
2018-04-14T04:47:19.608Z,99.99
2018-04-14T04:48:20.157Z,99.99
2018-04-14T04:49:20.699Z,99.99
2018-04-14T04:50:21.254Z,99.99
2018-04-14T04:51:21.799Z,99.99
2018-04-14T04:52:22.351Z,99.99
2018-04-14T04:53:22.892Z,99.99
2018-04-14T04:54:23.440Z,99.99
2018-04-14T04:55:23.986Z,99.99
2018-04-14T04:56:24.552Z,99.99
2018-04-14T04:57:25.085Z,99.99
2018-04-14T04:58:25.633Z,99.99
2018-04-14T04:59:26.185Z,99.99
2018-04-14T05:00:26.729Z,99.99
2018-04-14T05:01:27.284Z,99.99
2018-04-14T05:02:27.833Z,99.99
2018-04-14T05:03:28.382Z,99.99
2018-04-14T05:04:28.922Z,99.99
2018-04-14T05:05:29.476Z,99.99
2018-04-14T05:06:30.021Z,99.99
2018-04-14T05:07:30.572Z,99.99
2018-04-14T05:08:31.125Z,99.99
2018-04-14T05:09:31.667Z,99.99
2018-04-14T05:10:32.212Z,99.99
2018-04-14T05:11:32.763Z,99.99
2018-04-14T05:12:33.314Z,99.99
2018-04-14T05:13:33.865Z,99.99
2018-04-14T05:14:34.410Z,99.99
2018-04-14T05:15:34.968Z,99.99
2018-04-14T05:16:35.508Z,99.99
2018-04-14T05:17:36.064Z,99.99
2018-04-14T05:18:36.614Z,99.99
2018-04-14T05:19:37.164Z,99.99
2018-04-14T05:20:37.714Z,99.99
2018-04-14T05:21:38.260Z,99.99
2018-04-14T05:22:38.810Z,99.99
2018-04-14T05:23:39.360Z,99.99
2018-04-14T05:24:39.912Z,99.99
2018-04-14T05:25:40.460Z,99.99
2018-04-14T05:26:41.010Z,99.99
2018-04-14T05:27:41.561Z,99.99
2018-04-14T05:28:42.116Z,99.99
2018-04-14T05:29:42.676Z,99.99
2018-04-14T05:30:43.227Z,99.99
2018-04-14T05:31:43.778Z,99.99
2018-04-14T05:32:44.344Z,99.99
2018-04-14T05:33:44.891Z,99.99
2018-04-14T05:34:45.442Z,99.99
2018-04-14T05:35:45.997Z,99.99
2018-04-14T05:36:46.544Z,99.99
2018-04-14T05:37:47.095Z,99.99
2018-04-14T05:38:47.645Z,99.99
2018-04-14T05:39:48.199Z,99.99
2018-04-14T05:40:48.752Z,99.99
2018-04-14T05:41:49.303Z,99.99
2018-04-14T05:42:49.907Z,99.99
2018-04-14T05:43:50.411Z,99.99
2018-04-14T05:44:50.964Z,99.99
2018-04-14T05:45:51.508Z,99.99
2018-04-14T05:46:52.060Z,99.99
2018-04-14T05:47:52.606Z,99.99
2018-04-14T05:48:53.155Z,99.99
2018-04-14T05:49:53.705Z,99.99
2018-04-14T05:50:54.274Z,99.99
2018-04-14T05:51:54.807Z,99.99
2018-04-14T05:52:55.355Z,99.99
2018-04-14T05:53:55.907Z,99.99
2018-04-14T05:54:56.454Z,99.99
2018-04-14T05:55:57.019Z,99.99
2018-04-14T05:56:57.574Z,99.99
2018-04-14T05:57:58.116Z,99.99
2018-04-14T05:58:58.668Z,99.99
2018-04-14T05:59:59.216Z,99.99
2018-04-14T06:00:59.766Z,99.99
2018-04-14T06:02:00.321Z,99.99
2018-04-14T06:03:00.875Z,99.99
2018-04-14T06:04:01.425Z,99.99
2018-04-14T06:05:01.973Z,99.99
2018-04-14T06:06:02.533Z,99.99
2018-04-14T06:07:03.077Z,99.99
2018-04-14T06:08:03.627Z,99.99
2018-04-14T06:09:04.187Z,99.99
2018-04-14T06:10:04.740Z,99.99
2018-04-14T06:11:05.279Z,99.99
2018-04-14T06:12:05.831Z,99.99
2018-04-14T06:13:06.378Z,99.99
2018-04-14T06:14:06.934Z,99.99
2018-04-14T06:15:07.481Z,99.99
2018-04-14T06:16:08.033Z,99.99
2018-04-14T06:17:08.593Z,99.99
2018-04-14T06:18:09.185Z,99.99
2018-04-14T06:19:09.696Z,99.99
2018-04-14T06:20:10.263Z,99.99
2018-04-14T06:21:10.805Z,99.99
2018-04-14T06:22:11.411Z,99.99
2018-04-14T06:23:11.907Z,99.99
2018-04-14T06:24:12.473Z,99.99
2018-04-14T06:25:13.041Z,99.99
2018-04-14T06:26:13.595Z,99.99
2018-04-14T06:27:14.152Z,99.99
2018-04-14T06:28:14.751Z,99.99
2018-04-14T06:29:15.261Z,99.99
2018-04-14T06:30:15.818Z,99.99
2018-04-14T06:31:16.370Z,99.99
2018-04-14T06:32:16.923Z,99.99
2018-04-14T06:33:17.503Z,99.99
2018-04-14T06:34:18.039Z,99.99
2018-04-14T06:35:18.604Z,99.99
2018-04-14T06:36:19.159Z,99.99
2018-04-14T06:37:19.715Z,99.99
2018-04-14T06:38:20.269Z,99.99
2018-04-14T06:39:20.825Z,99.99
2018-04-14T06:40:21.381Z,99.99
2018-04-14T06:41:21.942Z,99.99
2018-04-14T06:42:22.498Z,99.99
2018-04-14T06:43:23.051Z,99.99
2018-04-14T06:44:23.612Z,99.99
2018-04-14T06:45:24.186Z,99.99
2018-04-14T06:46:24.728Z,99.99
2018-04-14T06:47:25.280Z,99.99
2018-04-14T06:48:25.842Z,99.99
2018-04-14T06:49:26.390Z,99.99
2018-04-14T06:50:26.946Z,99.99
2018-04-14T06:51:27.505Z,99.99
2018-04-14T06:52:28.063Z,99.99
2018-04-14T06:53:28.622Z,99.99
2018-04-14T06:54:29.178Z,99.99
2018-04-14T06:55:29.737Z,99.99
2018-04-14T06:56:30.300Z,99.99
2018-04-14T06:57:30.854Z,99.99
2018-04-14T06:58:31.408Z,99.99
2018-04-14T06:59:31.967Z,99.99
2018-04-14T07:00:32.526Z,99.99
2018-04-14T07:01:33.085Z,99.99
2018-04-14T07:02:33.641Z,99.99
2018-04-14T07:03:34.209Z,99.99
2018-04-14T07:04:34.778Z,99.99
2018-04-14T07:05:35.329Z,99.99
2018-04-14T07:06:35.887Z,99.99
2018-04-14T07:07:36.449Z,99.99
2018-04-14T07:08:37.006Z,99.99
2018-04-14T07:09:37.581Z,99.99
2018-04-14T07:10:38.125Z,99.99
2018-04-14T07:11:38.688Z,99.99
2018-04-14T07:12:39.239Z,99.99
2018-04-14T07:13:39.801Z,99.99
2018-04-14T07:14:40.361Z,99.99
2018-04-14T07:15:40.918Z,99.99
2018-04-14T07:16:41.487Z,99.99
2018-04-14T07:17:42.053Z,99.99
2018-04-14T07:18:42.614Z,99.99
2018-04-14T07:19:43.177Z,99.91
2018-04-14T07:20:43.747Z,99.24
2018-04-14T07:21:44.302Z,98.05
2018-04-14T07:22:44.860Z,97.56
2018-04-14T07:23:45.424Z,95.65
2018-04-14T07:24:45.984Z,95.07
2018-04-14T07:25:46.547Z,95.21
2018-04-14T07:26:47.123Z,92.91
2018-04-14T07:27:47.673Z,92.63
2018-04-14T07:28:48.237Z,92.39
2018-04-14T07:29:48.796Z,91.24
2018-04-14T07:30:49.378Z,89.70
2018-04-14T07:31:49.932Z,89.79
2018-04-14T07:32:50.493Z,89.12
2018-04-14T07:33:51.057Z,89.07
2018-04-14T07:34:51.620Z,88.88
2018-04-14T07:35:52.185Z,88.79
2018-04-14T07:36:52.751Z,89.26
2018-04-14T07:37:53.315Z,88.16
2018-04-14T07:38:53.878Z,85.89
2018-04-14T07:39:54.447Z,85.22
2018-04-14T07:40:55.014Z,83.53
2018-04-14T07:41:55.581Z,83.40
2018-04-14T07:42:56.143Z,82.63
2018-04-14T07:43:56.707Z,82.67
2018-04-14T07:44:57.321Z,82.76
2018-04-14T07:45:57.837Z,82.23
2018-04-14T07:46:58.395Z,80.40
2018-04-14T07:47:58.961Z,80.40
2018-04-14T07:48:59.523Z,79.86
2018-04-14T07:50:00.089Z,79.19
2018-04-14T07:51:00.654Z,77.84
2018-04-14T07:52:01.218Z,77.23
2018-04-14T07:53:01.784Z,77.90
2018-04-14T07:54:02.372Z,78.48
2018-04-14T07:55:02.950Z,79.38
2018-04-14T07:56:03.516Z,78.13
2018-04-14T07:57:04.083Z,77.78
2018-04-14T07:58:04.654Z,76.44
2018-04-14T07:59:05.221Z,76.92
2018-04-14T08:00:05.788Z,76.44
2018-04-14T08:01:06.354Z,76.67
2018-04-14T08:02:06.926Z,75.90
2018-04-14T08:03:07.497Z,74.93
2018-04-14T08:04:08.063Z,75.13
2018-04-14T08:05:08.631Z,75.09
2018-04-14T08:06:09.204Z,75.03
2018-04-14T08:07:09.773Z,74.90
2018-04-14T08:08:10.335Z,75.48
2018-04-14T08:09:10.901Z,75.23
2018-04-14T08:10:11.471Z,74.49
2018-04-14T08:11:12.039Z,74.01
2018-04-14T08:12:12.604Z,73.27
2018-04-14T08:13:13.187Z,72.31
2018-04-14T08:14:13.745Z,72.12
2018-04-14T08:15:14.329Z,72.02
2018-04-14T08:16:14.885Z,72.25
2018-04-14T08:17:15.453Z,71.09
2018-04-14T08:18:16.022Z,70.13
2018-04-14T08:19:16.592Z,69.35
2018-04-14T08:20:17.167Z,69.42
2018-04-14T08:21:17.725Z,70.09
2018-04-14T08:22:18.296Z,70.15
2018-04-14T08:23:18.864Z,70.54
2018-04-14T08:24:19.426Z,71.12
2018-04-14T08:25:20.003Z,70.83
2018-04-14T08:26:20.569Z,70.54
2018-04-14T08:27:21.137Z,71.02
2018-04-14T08:28:21.706Z,71.18
2018-04-14T08:29:22.279Z,70.79
2018-04-14T08:30:22.844Z,71.12
2018-04-14T08:31:23.412Z,71.12
2018-04-14T08:32:23.980Z,71.22
2018-04-14T08:33:24.559Z,71.02
2018-04-14T08:34:25.124Z,70.57
2018-04-14T08:35:25.690Z,69.42
2018-04-14T08:36:26.257Z,69.32
2018-04-14T08:37:26.918Z,69.23
2018-04-14T08:38:27.383Z,69.42
2018-04-14T08:39:27.961Z,68.59
2018-04-14T08:40:28.523Z,68.01
2018-04-14T08:41:29.095Z,67.62
2018-04-14T08:42:29.664Z,67.52
2018-04-14T08:43:30.237Z,67.91
2018-04-14T08:44:30.811Z,66.97
2018-04-14T08:45:31.382Z,66.59
2018-04-14T08:46:31.949Z,65.56
2018-04-14T08:47:32.517Z,65.75
2018-04-14T08:48:33.085Z,65.72
2018-04-14T08:49:33.652Z,65.75
2018-04-14T08:50:34.228Z,65.56
2018-04-14T08:51:34.789Z,65.78
2018-04-14T08:52:35.360Z,65.47
2018-04-14T08:53:35.930Z,64.79
2018-04-14T08:54:36.520Z,65.08
2018-04-14T08:55:37.072Z,65.66
2018-04-14T08:56:37.640Z,66.05
2018-04-14T08:57:38.210Z,64.82
2018-04-14T08:58:38.779Z,65.14
2018-04-14T08:59:39.347Z,63.89
2018-04-14T09:00:39.916Z,63.69
2018-04-14T09:01:40.483Z,64.08
2018-04-14T09:02:41.055Z,63.79
2018-04-14T09:03:41.626Z,64.43
2018-04-14T09:04:42.192Z,64.37
2018-04-14T09:05:42.770Z,64.95
2018-04-14T09:06:43.330Z,63.73
2018-04-14T09:07:43.898Z,63.11
2018-04-14T09:08:44.470Z,63.89
2018-04-14T09:09:45.038Z,63.89
2018-04-14T09:10:45.610Z,64.56
2018-04-14T09:11:46.174Z,64.24
2018-04-14T09:12:46.751Z,63.69
2018-04-14T09:13:47.324Z,63.11
2018-04-14T09:14:47.890Z,63.79
2018-04-14T09:15:48.464Z,63.34
2018-04-14T09:16:49.030Z,62.27
2018-04-14T09:17:49.599Z,61.89
2018-04-14T09:18:50.213Z,62.05
2018-04-14T09:19:50.762Z,62.27
2018-04-14T09:20:51.332Z,61.98
2018-04-14T09:21:51.901Z,62.15
2018-04-14T09:22:52.471Z,62.50
2018-04-14T09:23:53.045Z,63.08
2018-04-14T09:24:53.615Z,64.01
2018-04-14T09:25:54.221Z,64.76
2018-04-14T09:26:54.760Z,65.59
2018-04-14T09:27:55.321Z,66.46
2018-04-14T09:28:55.888Z,66.62
2018-04-14T09:29:56.447Z,67.49
2018-04-14T09:30:57.033Z,67.36
2018-04-14T09:31:57.600Z,68.32
2018-04-14T09:32:58.172Z,69.35
2018-04-14T09:33:58.736Z,69.45
2018-04-14T09:34:59.302Z,70.70
2018-04-14T09:35:59.868Z,71.08
2018-04-14T09:37:00.455Z,70.66
2018-04-14T09:38:01.000Z,71.24
2018-04-14T09:39:01.568Z,71.04
2018-04-14T09:40:02.147Z,71.04
2018-04-14T09:41:02.700Z,71.62
2018-04-14T09:42:03.267Z,71.08
2018-04-14T09:43:03.834Z,71.66
2018-04-14T09:44:04.403Z,71.62
2018-04-14T09:45:04.971Z,71.24
2018-04-14T09:46:05.537Z,71.34
2018-04-14T09:47:06.104Z,71.91
2018-04-14T09:48:06.665Z,72.11
2018-04-14T09:49:07.237Z,72.45
2018-04-14T09:50:07.800Z,73.07
2018-04-14T09:51:08.361Z,73.36
2018-04-14T09:52:08.928Z,73.46
2018-04-14T09:53:09.496Z,72.97
2018-04-14T09:54:10.060Z,72.72
2018-04-14T09:55:10.629Z,71.76
2018-04-14T09:56:11.187Z,71.70
2018-04-14T09:57:11.754Z,70.92
2018-04-14T09:58:12.324Z,70.67
2018-04-14T09:59:12.896Z,69.26
2018-04-14T10:00:13.463Z,68.39
2018-04-14T10:01:14.028Z,67.85
2018-04-14T10:02:14.595Z,67.43
2018-04-14T10:03:15.163Z,67.71
2018-04-14T10:04:15.733Z,68.65
2018-04-14T10:05:16.302Z,69.51
2018-04-14T10:06:16.872Z,69.80
2018-04-14T10:07:17.439Z,69.26
2018-04-14T10:08:18.007Z,69.45
2018-04-14T10:09:18.572Z,68.71
2018-04-14T10:10:19.157Z,67.69
2018-04-14T10:11:19.711Z,66.75
2018-04-14T10:12:20.337Z,65.69
2018-04-14T10:13:20.984Z,65.69
2018-04-14T10:14:21.534Z,65.05
2018-04-14T10:15:22.104Z,64.47
2018-04-14T10:16:22.688Z,65.01
2018-04-14T10:17:23.245Z,65.08
2018-04-14T10:18:23.818Z,65.72
2018-04-14T10:19:24.388Z,65.72
2018-04-14T10:20:24.954Z,66.59
2018-04-14T10:21:25.523Z,66.33
2018-04-14T10:22:26.096Z,66.63
2018-04-14T10:23:26.663Z,66.43
2018-04-14T10:24:27.231Z,66.53
2018-04-14T10:25:27.797Z,66.63
2018-04-14T10:26:28.366Z,66.56
2018-04-14T10:27:28.936Z,65.78
2018-04-14T10:28:29.507Z,65.95
2018-04-14T10:29:30.073Z,67.04
2018-04-14T10:30:30.642Z,67.52
2018-04-14T10:31:31.208Z,68.77
2018-04-14T10:32:31.779Z,68.43
2018-04-14T10:33:32.350Z,67.17
2018-04-14T10:34:32.915Z,67.65
2018-04-14T10:35:33.480Z,68.04
2018-04-14T10:36:34.047Z,67.69
2018-04-14T10:37:34.612Z,66.91
2018-04-14T10:38:35.181Z,66.46
2018-04-14T10:39:35.747Z,65.78
2018-04-14T10:40:36.320Z,65.11
2018-04-14T10:41:36.888Z,65.30
2018-04-14T10:42:37.455Z,65.59
2018-04-14T10:43:38.028Z,65.40
2018-04-14T10:44:38.598Z,64.82
2018-04-14T10:45:39.169Z,64.72
2018-04-14T10:46:39.737Z,64.37
2018-04-14T10:47:40.307Z,64.27
2018-04-14T10:48:40.875Z,64.27
2018-04-14T10:49:41.448Z,64.37
2018-04-14T10:50:42.011Z,64.37
2018-04-14T10:51:42.574Z,64.40
2018-04-14T10:52:43.138Z,64.43
2018-04-14T10:53:43.708Z,62.98
2018-04-14T10:54:44.277Z,62.82
2018-04-14T10:55:44.870Z,61.98
2018-04-14T10:56:45.404Z,60.43
2018-04-14T10:57:45.978Z,60.30
2018-04-14T10:58:46.545Z,60.91
2018-04-14T10:59:47.118Z,61.36
2018-04-14T11:00:47.685Z,61.30
2018-04-14T11:01:48.258Z,61.36
2018-04-14T11:02:48.829Z,61.59
2018-04-14T11:03:49.402Z,61.49
2018-04-14T11:04:49.969Z,60.36
2018-04-14T11:05:50.540Z,60.27
2018-04-14T11:06:51.108Z,59.56
2018-04-14T11:07:51.679Z,59.66
2018-04-14T11:08:52.244Z,59.17
2018-04-14T11:09:52.817Z,59.72
2018-04-14T11:10:53.390Z,60.43
2018-04-14T11:11:53.961Z,60.52
2018-04-14T11:12:54.532Z,61.40
2018-04-14T11:13:55.103Z,60.14
2018-04-14T11:14:55.675Z,60.72
2018-04-14T11:15:56.244Z,60.82
2018-04-14T11:16:56.811Z,60.43
2018-04-14T11:31:47.412Z,58.09
2018-04-14T11:32:47.978Z,58.58
2018-04-14T11:33:48.545Z,59.13
2018-04-14T11:34:49.118Z,59.69
2018-04-14T11:35:49.688Z,60.33
2018-04-14T11:36:50.256Z,60.72
2018-04-14T11:37:50.830Z,60.14
2018-04-14T11:38:51.397Z,60.62
2018-04-14T11:39:51.962Z,60.46
2018-04-14T11:40:52.537Z,60.46
2018-04-14T11:41:53.112Z,60.30
2018-04-14T11:42:53.676Z,59.20
2018-04-14T11:43:54.247Z,59.13
2018-04-14T11:44:54.825Z,59.23
2018-04-14T11:45:55.393Z,59.23
2018-04-14T11:46:55.959Z,58.55
2018-04-14T11:47:56.529Z,59.13
2018-04-14T11:48:57.097Z,59.42
2018-04-14T11:49:57.667Z,59.23
2018-04-14T11:50:58.240Z,58.58
2018-04-14T11:51:58.800Z,58.42
2018-04-14T11:52:59.372Z,59.20
2018-04-14T11:53:59.937Z,59.69
2018-04-14T11:55:00.508Z,60.17
2018-04-14T11:56:01.080Z,59.33
2018-04-14T11:57:01.650Z,59.13
2018-04-14T11:58:02.214Z,58.42
2018-04-14T11:59:02.782Z,59.10
2018-04-14T12:00:03.351Z,59.17
2018-04-14T12:01:03.924Z,59.56
2018-04-14T12:02:04.496Z,59.17
2018-04-14T12:03:05.061Z,59.27
2018-04-14T12:04:05.624Z,59.36
2018-04-14T12:05:06.194Z,59.59
2018-04-14T12:06:06.764Z,59.42
2018-04-14T12:07:07.338Z,58.67
2018-04-14T12:08:07.901Z,58.19
2018-04-14T12:09:08.469Z,57.80
2018-04-14T12:10:09.034Z,57.42
2018-04-14T12:11:09.600Z,56.93
2018-04-14T12:12:10.166Z,56.93
2018-04-14T12:13:10.743Z,56.47
2018-04-14T12:14:11.308Z,56.60
2018-04-14T12:15:11.878Z,55.92
2018-04-14T12:16:12.441Z,55.24
2018-04-14T12:17:13.019Z,54.68
2018-04-14T12:18:13.585Z,54.56
2018-04-14T12:19:14.147Z,55.02
2018-04-14T12:20:14.719Z,55.99
2018-04-14T12:21:15.286Z,56.09
2018-04-14T12:22:15.856Z,56.25
2018-04-14T12:23:16.428Z,56.93
2018-04-14T12:24:16.987Z,57.03
2018-04-14T12:25:17.562Z,57.39
2018-04-14T12:26:18.141Z,57.19
2018-04-14T12:27:18.712Z,57.39
2018-04-14T12:28:19.313Z,56.93
2018-04-14T12:44:25.317Z,56.71
2018-04-14T12:45:25.886Z,57.39
2018-04-14T12:46:26.452Z,57.71
2018-04-14T12:47:27.016Z,58.88
2018-04-14T12:48:27.588Z,58.49
2018-04-14T12:49:28.155Z,58.49
2018-04-14T12:50:28.725Z,58.52
2018-04-14T12:51:29.295Z,57.65
2018-04-14T12:52:29.861Z,56.93
2018-04-14T12:53:30.423Z,56.15
2018-04-14T12:54:30.991Z,55.87
2018-04-14T12:55:31.551Z,56.23
2018-04-14T12:56:32.117Z,56.15
2018-04-14T12:57:32.688Z,55.89
2018-04-14T12:58:33.257Z,55.53
2018-04-14T12:59:33.828Z,54.88
2018-04-14T13:00:34.399Z,54.00
2018-04-14T13:01:34.967Z,53.81
2018-04-14T13:02:35.539Z,54.46
2018-04-14T13:03:36.109Z,54.66
2018-04-14T13:04:36.673Z,54.58
2018-04-14T13:05:37.242Z,53.74
2018-04-14T13:06:37.811Z,52.96
2018-04-14T13:07:38.382Z,52.86
2018-04-14T13:08:38.955Z,52.84
2018-04-14T13:09:39.519Z,53.49
2018-04-14T13:10:40.087Z,54.44
2018-04-14T13:11:40.656Z,54.63
2018-04-14T13:12:41.228Z,54.75
2018-04-14T13:13:41.800Z,55.04
2018-04-14T13:14:42.368Z,54.68
2018-04-14T13:15:42.937Z,54.97
2018-04-14T13:16:43.501Z,55.17
2018-04-14T13:17:44.070Z,54.88
2018-04-14T13:18:44.636Z,54.58
2018-04-14T13:19:45.203Z,54.78
2018-04-14T13:20:45.771Z,55.00
2018-04-14T13:21:46.339Z,54.03
2018-04-14T13:22:46.906Z,53.47
2018-04-14T13:23:47.473Z,53.38
2018-04-14T13:24:48.102Z,52.79
2018-04-14T13:25:49.227Z,53.35
2018-04-14T13:26:49.790Z,54.10
2018-04-14T13:27:50.359Z,54.92
2018-04-14T13:28:50.932Z,55.28